Time;durP1;ratioP1;P1;durP2;ratioP2;P2;SDS_P1;SDS_P2;PMS_P1;PMS_P2;Temp;Humidity;BMP_temperature;BMP_pressure;BME280_temperature;BME280_humidity;BME280_pressure;Samples;Min_cycle;Max_cycle;Signal;HPM_P1;HPM_P2
2023/08/17 00:01:20;;;;;;;3.38;2.50;;;;;;;22.63;100.00;100632.50;4990432;28;20359;-75
2023/08/17 00:03:45;;;;;;;4.72;2.25;;;;;;;22.18;100.00;100536.56;4991179;28;20030;-75
2023/08/17 00:06:11;;;;;;;2.75;1.55;;;;;;;22.57;100.00;100614.09;4990422;28;20150;-75
2023/08/17 00:08:36;;;;;;;3.05;2.08;;;;;;;22.07;100.00;100534.38;4989097;28;20049;-75
2023/08/17 00:11:02;;;;;;;7.95;3.85;;;;;;;22.68;100.00;100637.66;4990724;28;20050;-75
2023/08/17 00:13:27;;;;;;;4.25;2.35;;;;;;;21.85;100.00;100489.06;4990090;28;20029;-75
2023/08/17 00:15:53;;;;;;;2.58;1.60;;;;;;;22.60;100.00;100632.66;4983317;28;20019;-74
2023/08/17 00:18:18;;;;;;;5.05;2.60;;;;;;;22.74;100.00;100632.03;4989760;28;20050;-75
2023/08/17 00:20:44;;;;;;;5.70;2.50;;;;;;;22.63;100.00;100619.13;4990274;28;20121;-75
2023/08/17 00:23:10;;;;;;;5.50;2.85;;;;;;;22.63;100.00;100626.31;4990640;28;20494;-75
2023/08/17 00:25:35;;;;;;;6.15;3.03;;;;;;;21.93;100.00;100511.81;4990280;28;20033;-74
2023/08/17 00:28:01;;;;;;;4.68;2.88;;;;;;;22.34;100.00;100567.88;4989819;28;20061;-75
2023/08/17 00:30:27;;;;;;;4.07;1.58;;;;;;;22.10;100.00;100532.44;4990184;28;20035;-75
2023/08/17 00:32:52;;;;;;;3.05;1.60;;;;;;;22.67;100.00;100622.56;4990171;28;20474;-75
2023/08/17 00:35:17;;;;;;;8.38;2.63;;;;;;;22.66;100.00;100623.47;4989796;28;20038;-75
2023/08/17 00:37:43;;;;;;;3.50;2.22;;;;;;;21.92;100.00;100506.56;4989631;28;20129;-74
2023/08/17 00:40:09;;;;;;;5.88;2.40;;;;;;;22.67;100.00;100617.19;4990545;28;20038;-75
2023/08/17 00:42:34;;;;;;;3.70;1.90;;;;;;;22.57;100.00;100618.53;4987254;28;20609;-75
2023/08/17 00:45:00;;;;;;;5.15;2.88;;;;;;;21.50;100.00;100446.13;4989449;28;20038;-75
2023/08/17 00:47:26;;;;;;;3.55;2.03;;;;;;;22.46;100.00;100611.91;4987847;28;20101;-74
2023/08/17 00:49:51;;;;;;;5.18;2.63;;;;;;;22.52;100.00;100610.75;4989469;28;20112;-74
2023/08/17 00:52:17;;;;;;;4.60;2.05;;;;;;;22.43;100.00;100614.72;4989007;28;20073;-74
2023/08/17 00:54:42;;;;;;;3.67;2.33;;;;;;;22.36;100.00;100596.34;4986097;28;20057;-74
2023/08/17 00:57:09;;;;;;;2.38;1.63;;;;;;;22.26;100.00;100594.09;4988517;28;20122;-74
2023/08/17 00:59:35;;;;;;;6.65;5.15;;;;;;;21.93;100.00;100530.50;4989571;28;20039;-73
2023/08/17 01:02:01;;;;;;;3.28;1.75;;;;;;;22.30;100.00;100617.06;4989145;28;20436;-74
2023/08/17 01:04:27;;;;;;;7.13;2.60;;;;;;;22.18;100.00;100595.38;4989056;28;20038;-74
2023/08/17 01:06:52;;;;;;;2.70;1.77;;;;;;;22.30;100.00;100616.22;4989972;28;20026;-75
2023/08/17 01:09:19;;;;;;;3.97;3.00;;;;;;;22.03;100.00;100581.75;5021046;28;20565;-75
2023/08/17 01:12:18;;;;;;;4.03;2.30;;;;;;;22.24;100.00;100621.81;4985906;28;20082;-74
2023/08/17 01:14:59;;;;;;;5.40;2.83;;;;;;;21.88;100.00;100563.72;4980640;28;20069;-74
2023/08/17 01:17:39;;;;;;;3.88;2.22;;;;;;;21.67;100.00;100530.81;4988931;28;20057;-75
2023/08/17 01:20:09;;;;;;;3.85;2.60;;;;;;;21.95;100.00;100578.53;5020089;28;20046;-75
2023/08/17 01:22:36;;;;;;;5.90;2.75;;;;;;;22.05;100.00;100605.72;4989295;28;20030;-75
2023/08/17 01:25:03;;;;;;;3.83;2.35;;;;;;;22.27;100.00;100624.38;4989394;28;20030;-75
2023/08/17 01:27:40;;;;;;;6.32;2.33;;;;;;;22.21;100.00;100611.28;4988805;28;20059;-75
2023/08/17 01:30:07;;;;;;;5.93;2.13;;;;;;;22.14;100.00;100607.97;4989131;28;20054;-75
2023/08/17 01:32:53;;;;;;;4.95;2.20;;;;;;;22.14;100.00;100597.28;4988197;28;20050;-75
2023/08/17 01:35:30;;;;;;;5.40;2.72;;;;;;;22.13;100.00;100615.13;4989339;28;20144;-75
2023/08/17 01:38:00;;;;;;;4.03;2.45;;;;;;;22.08;100.00;100609.13;4987391;28;20578;-76
2023/08/17 01:40:29;;;;;;;5.00;2.55;;;;;;;21.97;100.00;100589.19;4988905;28;20169;-74
2023/08/17 01:42:55;;;;;;;3.90;2.63;;;;;;;22.13;100.00;100596.44;4989430;28;20493;-75
2023/08/17 01:45:21;;;;;;;4.05;1.90;;;;;;;21.41;100.00;100502.59;4986788;28;20126;-75
2023/08/17 01:47:46;;;;;;;3.22;2.25;;;;;;;21.96;100.00;100604.34;5018502;28;20628;-75
2023/08/17 01:50:12;;;;;;;4.05;2.00;;;;;;;21.86;100.00;100578.94;4988754;28;20096;-75
2023/08/17 01:52:37;;;;;;;4.40;3.25;;;;;;;21.31;100.00;100502.09;4988498;28;20351;-75
2023/08/17 01:55:03;;;;;;;3.58;1.83;;;;;;;21.42;100.00;100523.91;4987320;28;20054;-75
2023/08/17 01:57:30;;;;;;;3.67;1.70;;;;;;;21.38;100.00;100516.06;4987816;28;20054;-75
2023/08/17 01:59:55;;;;;;;3.58;2.45;;;;;;;21.79;100.00;100585.50;4986595;28;20042;-75
2023/08/17 02:02:21;;;;;;;5.80;2.92;;;;;;;21.91;100.00;100617.00;4986317;28;20498;-74
2023/08/17 02:04:47;;;;;;;3.08;2.08;;;;;;;21.58;100.00;100561.44;4987248;28;20038;-73
2023/08/17 02:07:12;;;;;;;4.93;3.35;;;;;;;21.54;100.00;100549.19;4982820;28;20031;-75
2023/08/17 02:09:38;;;;;;;3.53;2.25;;;;;;;21.47;100.00;100510.34;4986607;28;20039;-75
2023/08/17 02:12:04;;;;;;;5.78;2.15;;;;;;;21.18;100.00;100501.72;4988325;28;20440;-75
2023/08/17 02:14:29;;;;;;;4.45;2.13;;;;;;;21.05;100.00;100482.72;4987811;28;20042;-75
2023/08/17 02:16:54;;;;;;;3.47;2.15;;;;;;;21.59;100.00;100586.38;4986157;28;20038;-74
2023/08/17 02:19:20;;;;;;;3.85;2.30;;;;;;;21.10;100.00;100513.69;4986775;28;20041;-73
2023/08/17 02:21:46;;;;;;;5.10;2.58;;;;;;;20.97;100.00;100495.50;4980790;28;20034;-74
2023/08/17 02:24:11;;;;;;;5.70;2.88;;;;;;;21.09;100.00;100504.78;4986976;28;20137;-73
2023/08/17 02:26:38;;;;;;;4.10;2.70;;;;;;;21.53;100.00;100594.66;4987321;28;20046;-76
2023/08/17 02:29:04;;;;;;;10.63;2.72;;;;;;;21.64;100.00;100617.28;4986932;28;20089;-74
2023/08/17 02:31:29;;;;;;;3.22;2.22;;;;;;;21.55;100.00;100582.97;4987174;28;20049;-74
2023/08/17 02:34:00;;;;;;;2.83;1.88;;;;;;;21.13;100.00;100525.09;4988151;28;20018;-74
2023/08/17 02:36:26;;;;;;;4.88;3.10;;;;;;;21.60;100.00;100617.47;4987904;28;20057;-75
2023/08/17 02:38:51;;;;;;;4.40;2.90;;;;;;;21.00;100.00;100503.41;4988299;28;20055;-74
2023/08/17 02:41:17;;;;;;;3.78;2.70;;;;;;;20.86;100.00;100479.06;4987319;28;20062;-75
2023/08/17 02:43:42;;;;;;;6.15;3.72;;;;;;;21.51;100.00;100592.03;4987998;28;20039;-74
2023/08/17 02:46:09;;;;;;;7.28;4.35;;;;;;;21.54;100.00;100594.59;4988039;28;20497;-76
2023/08/17 02:48:35;;;;;;;5.13;3.40;;;;;;;20.89;100.00;100516.31;4985920;28;20127;-75
2023/08/17 02:51:00;;;;;;;3.00;1.92;;;;;;;21.55;100.00;100620.34;4988106;28;20110;-75
2023/08/17 02:53:26;;;;;;;4.60;2.65;;;;;;;20.94;100.00;100508.97;4987538;28;20129;-74
2023/08/17 02:55:51;;;;;;;5.20;2.85;;;;;;;21.38;100.00;100618.34;4984035;28;20041;-74
2023/08/17 02:58:17;;;;;;;3.83;2.08;;;;;;;21.44;100.00;100620.78;4987031;28;20041;-73
2023/08/17 03:00:42;;;;;;;5.38;3.53;;;;;;;21.42;100.00;100628.00;4987775;28;20943;-73
2023/08/17 03:03:08;;;;;;;4.03;1.80;;;;;;;20.89;100.00;100515.44;4987572;28;20038;-74
2023/08/17 03:05:33;;;;;;;2.85;2.20;;;;;;;21.45;100.00;100630.56;4987781;28;20551;-73
2023/08/17 03:07:59;;;;;;;3.60;2.63;;;;;;;20.76;100.00;100521.25;4987945;28;20062;-74
2023/08/17 03:10:25;;;;;;;4.85;2.15;;;;;;;20.74;100.00;100519.59;4984918;28;20518;-75
2023/08/17 03:12:51;;;;;;;3.72;2.38;;;;;;;21.39;100.00;100627.22;4985611;28;20026;-76
2023/08/17 03:15:16;;;;;;;3.38;2.10;;;;;;;20.43;100.00;100492.31;4985351;28;20598;-75
2023/08/17 03:17:42;;;;;;;2.90;2.00;;;;;;;21.29;100.00;100635.63;4985579;28;20177;-74
2023/08/17 03:20:08;;;;;;;5.30;3.22;;;;;;;21.30;100.00;100631.13;4985341;28;20034;-74
2023/08/17 03:22:34;;;;;;;4.40;2.35;;;;;;;21.06;100.00;100611.66;4982734;28;20806;-74
2023/08/17 03:25:00;;;;;;;5.32;2.58;;;;;;;20.49;100.00;100520.53;4981612;28;20031;-74
2023/08/17 03:27:25;;;;;;;5.07;2.35;;;;;;;20.98;100.00;100595.09;4984263;28;20055;-74
2023/08/17 03:29:51;;;;;;;5.30;4.07;;;;;;;21.32;100.00;100647.97;4986455;28;20050;-75
2023/08/17 03:32:17;;;;;;;7.88;3.55;;;;;;;20.48;100.00;100510.78;4986669;28;20042;-75
2023/08/17 03:34:42;;;;;;;5.13;2.78;;;;;;;21.19;100.00;100639.59;4986452;28;20043;-75
2023/08/17 03:37:08;;;;;;;6.32;3.45;;;;;;;20.61;100.00;100522.75;4985427;28;20034;-75
2023/08/17 03:39:35;;;;;;;5.97;4.03;;;;;;;21.20;100.00;100638.66;4986380;28;20491;-75
2023/08/17 03:42:00;;;;;;;6.22;2.63;;;;;;;20.75;100.00;100554.19;4987267;28;20038;-76
2023/08/17 03:44:25;;;;;;;4.57;2.15;;;;;;;21.26;100.00;100633.06;4990078;28;20054;-75
2023/08/17 03:46:52;;;;;;;5.13;3.17;;;;;;;20.79;100.00;100553.16;4983277;28;20039;-75
2023/08/17 03:49:18;;;;;;;5.03;3.83;;;;;;;20.77;100.00;100544.34;4986143;28;20030;-74
2023/08/17 03:51:43;;;;;;;3.67;2.50;;;;;;;21.40;100.00;100651.22;4990366;28;20562;-75
2023/08/17 03:54:08;;;;;;;3.13;2.13;;;;;;;20.58;100.00;100519.31;4989881;28;20414;-75
2023/08/17 03:56:34;;;;;;;5.22;4.25;;;;;;;20.59;100.00;100537.06;4985816;28;20050;-75
2023/08/17 03:58:59;;;;;;;3.25;2.33;;;;;;;21.34;100.00;100654.09;4989720;28;20057;-76
2023/08/17 04:01:25;;;;;;;3.85;2.53;;;;;;;21.39;100.00;100651.25;4988560;28;20030;-75
2023/08/17 04:03:50;;;;;;;5.80;4.10;;;;;;;21.17;100.00;100625.44;4990356;28;20034;-75
2023/08/17 04:06:16;;;;;;;6.47;3.30;;;;;;;21.37;100.00;100656.66;4989109;28;20038;-75
2023/08/17 04:08:41;;;;;;;3.50;2.65;;;;;;;20.86;100.00;100545.75;4989110;28;20042;-75
2023/08/17 04:11:07;;;;;;;4.65;4.15;;;;;;;21.40;100.00;100626.31;4989869;28;20042;-75
2023/08/17 04:13:32;;;;;;;4.95;2.47;;;;;;;21.64;100.00;100638.66;4989376;28;20034;-75
2023/08/17 04:15:58;;;;;;;4.43;2.60;;;;;;;21.58;100.00;100616.66;4988500;28;20058;-75
2023/08/17 04:18:23;;;;;;;5.25;2.50;;;;;;;21.38;100.00;100602.34;4988808;28;20034;-75
2023/08/17 04:20:50;;;;;;;12.60;3.75;;;;;;;21.45;100.00;100589.63;4989457;28;20482;-75
2023/08/17 04:23:15;;;;;;;5.45;2.58;;;;;;;21.93;100.00;100648.06;4989293;28;20046;-74
2023/08/17 04:25:43;;;;;;;4.15;2.85;;;;;;;21.91;100.00;100643.72;4989267;28;20053;-74
2023/08/17 04:28:08;;;;;;;4.82;2.05;;;;;;;21.98;100.00;100641.66;4989758;28;20085;-75
2023/08/17 04:30:33;;;;;;;4.18;2.55;;;;;;;21.52;100.00;100560.84;4988677;28;20046;-74
2023/08/17 04:32:59;;;;;;;28.55;4.32;;;;;;;21.56;100.00;100539.28;4989158;28;20051;-74
2023/08/17 04:35:24;;;;;;;4.00;2.58;;;;;;;22.31;100.00;100674.97;4988422;28;20042;-75
2023/08/17 04:37:50;;;;;;;3.95;2.70;;;;;;;22.26;100.00;100636.00;4988475;28;20449;-74
2023/08/17 04:40:15;;;;;;;5.30;3.25;;;;;;;21.91;100.00;100567.13;4989483;28;20030;-75
2023/08/17 04:42:41;;;;;;;6.75;3.28;;;;;;;22.44;100.00;100648.53;4989114;28;20069;-74
2023/08/17 04:45:07;;;;;;;4.47;4.03;;;;;;;22.58;100.00;100660.41;4988395;28;20034;-75
2023/08/17 04:47:32;;;;;;;5.63;3.05;;;;;;;21.87;100.00;100552.19;4978980;28;20070;-74
2023/08/17 04:49:58;;;;;;;5.43;3.50;;;;;;;22.49;100.00;100653.69;4985438;28;20038;-74
2023/08/17 04:52:23;;;;;;;5.03;2.72;;;;;;;22.62;100.00;100659.34;4988571;28;20026;-74
2023/08/17 04:54:49;;;;;;;5.68;3.20;;;;;;;22.57;100.00;100642.63;4988849;28;20161;-76
2023/08/17 04:57:14;;;;;;;4.10;2.55;;;;;;;21.99;100.00;100541.88;4980757;28;20042;-75
2023/08/17 04:59:40;;;;;;;3.55;2.53;;;;;;;22.13;100.00;100558.16;4988642;28;20441;-75
2023/08/17 05:02:06;;;;;;;4.90;3.03;;;;;;;22.68;100.00;100621.59;4988186;28;20152;-74
2023/08/17 05:04:31;;;;;;;6.70;3.00;;;;;;;22.30;100.00;100552.91;4988331;28;20034;-74
2023/08/17 05:06:56;;;;;;;12.77;3.72;;;;;;;23.05;100.00;100657.34;4987572;28;20088;-75
2023/08/17 05:09:22;;;;;;;3.97;2.47;;;;;;;23.00;100.00;100646.00;4987765;28;20050;-74
2023/08/17 05:11:48;;;;;;;3.63;2.13;;;;;;;23.10;100.00;100641.94;4988379;28;20064;-74
2023/08/17 05:14:13;;;;;;;4.35;3.15;;;;;;;23.25;100.00;100665.28;4988734;28;20046;-74
2023/08/17 05:16:39;;;;;;;4.55;3.15;;;;;;;23.49;100.00;100659.66;4978861;28;20061;-76
2023/08/17 05:19:04;;;;;;;6.60;3.90;;;;;;;23.47;100.00;100645.47;4977947;28;20022;-74
2023/08/17 05:21:29;;;;;;;5.15;2.42;;;;;;;23.61;100.00;100645.66;4978069;28;20066;-75
2023/08/17 05:23:55;;;;;;;5.53;3.22;;;;;;;23.26;100.00;100551.88;4982428;28;20923;-76
2023/08/17 05:26:22;;;;;;;10.05;2.53;;;;;;;24.10;100.00;100651.19;4980347;28;20069;-75
2023/08/17 05:28:47;;;;;;;7.43;3.72;;;;;;;24.52;100.00;100668.66;4977296;28;20137;-77
2023/08/17 05:31:13;;;;;;;3.67;3.08;;;;;;;24.35;100.00;100644.50;4982020;28;20125;-76
2023/08/17 05:33:40;;;;;;;4.03;2.80;;;;;;;24.73;100.00;100558.41;4982939;28;20564;-76
2023/08/17 05:36:07;;;;;;;4.55;2.17;;;;;;;25.62;100.00;100647.31;4984988;28;20054;-78
2023/08/17 05:38:32;;;;;;;3.30;1.95;;;;;;;26.34;100.00;100667.19;4978515;28;20394;-73
2023/08/17 05:40:58;;;;;;;4.63;2.33;;;;;;;26.11;100.00;100666.75;4984610;28;20038;-75
2023/08/17 05:43:25;;;;;;;8.73;2.67;;;;;;;26.60;100.00;100649.44;4984315;28;20042;-76
2023/08/17 05:45:50;;;;;;;3.53;2.30;;;;;;;26.66;100.00;100579.03;4984506;28;20707;-76
2023/08/17 05:48:20;;;;;;;3.58;2.03;;;;;;;26.85;100.00;100554.47;4981098;28;20038;-75
2023/08/17 05:50:47;;;;;;;4.35;2.50;;;;;;;27.25;100.00;100647.97;4985006;28;20054;-75
2023/08/17 05:53:12;;;;;;;4.15;2.58;;;;;;;26.97;100.00;100563.56;4980984;28;20055;-77
2023/08/17 05:55:38;;;;;;;3.47;2.40;;;;;;;27.79;100.00;100667.69;4983206;28;20085;-74
2023/08/17 05:58:06;;;;;;;3.10;2.15;;;;;;;27.38;100.00;100603.09;4984568;28;20026;-77
2023/08/17 06:00:32;;;;;;;3.40;2.38;;;;;;;27.23;100.00;100567.25;4984692;28;20046;-76
2023/08/17 06:03:01;;;;;;;3.90;2.30;;;;;;;27.75;100.00;100587.09;4972425;28;20137;-74
2023/08/17 06:05:28;;;;;;;2.35;1.55;;;;;;;27.28;100.00;100626.25;4980369;28;20049;-75
2023/08/17 06:07:57;;;;;;;3.88;2.47;;;;;;;27.72;100.00;100633.13;4975101;28;20777;-75
2023/08/17 06:10:26;;;;;;;6.20;3.10;;;;;;;28.13;99.56;100645.66;4979196;28;20125;-76
2023/08/17 06:12:55;;;;;;;3.42;2.40;;;;;;;27.35;99.61;100555.66;4985299;28;20030;-76
2023/08/17 06:15:22;;;;;;;3.65;1.80;;;;;;;27.55;100.00;100601.94;4983288;28;20138;-77
2023/08/17 06:17:49;;;;;;;5.25;2.30;;;;;;;27.42;100.00;100590.25;4981260;28;20138;-76
2023/08/17 06:20:16;;;;;;;9.55;2.92;;;;;;;27.92;100.00;100648.84;4983582;28;20056;-76
2023/08/17 06:22:42;;;;;;;4.60;2.60;;;;;;;28.07;96.97;100619.94;4985145;28;20497;-74
2023/08/17 06:25:08;;;;;;;4.32;2.63;;;;;;;27.70;98.74;100557.75;4986021;28;20038;-75
2023/08/17 06:27:35;;;;;;;3.25;2.00;;;;;;;28.24;98.11;100644.88;4983928;28;20089;-75
2023/08/17 06:30:00;;;;;;;2.97;2.05;;;;;;;28.11;93.27;100561.25;4977774;28;20640;-75
2023/08/17 06:32:26;;;;;;;10.68;2.15;;;;;;;27.77;93.73;100558.19;4983485;28;20137;-81
2023/08/17 06:34:54;;;;;;;9.23;3.47;;;;;;;28.36;94.20;100669.19;4974777;28;20047;-78
2023/08/17 06:37:19;;;;;;;3.85;2.88;;;;;;;28.14;92.08;100629.34;4963772;28;20042;-75
2023/08/17 06:39:45;;;;;;;7.38;2.75;;;;;;;27.74;93.16;100558.38;4983868;28;20049;-75
2023/08/17 06:42:10;;;;;;;2.88;2.08;;;;;;;27.98;93.84;100605.28;4978172;28;20054;-82
2023/08/17 06:44:36;;;;;;;3.47;2.40;;;;;;;28.12;95.56;100649.28;4984964;28;20069;-75
2023/08/17 06:47:01;;;;;;;2.75;1.88;;;;;;;28.07;95.84;100652.31;4979873;28;20042;-75
2023/08/17 06:49:27;;;;;;;5.32;2.55;;;;;;;27.62;93.96;100588.91;4981817;28;20030;-75
2023/08/17 06:51:53;;;;;;;4.72;2.45;;;;;;;27.75;93.80;100568.22;4985419;28;20051;-76
2023/08/17 06:54:18;;;;;;;4.22;2.80;;;;;;;28.20;90.48;100583.03;4983386;28;20499;-75
2023/08/17 06:56:44;;;;;;;2.95;2.40;;;;;;;27.78;93.06;100613.84;4980343;28;20444;-76
2023/08/17 06:59:09;;;;;;;3.42;2.70;;;;;;;27.84;93.94;100645.84;4978768;28;20113;-75
2023/08/17 07:01:35;;;;;;;3.45;1.98;;;;;;;28.08;93.46;100653.19;4981370;28;20226;-78
2023/08/17 07:04:00;;;;;;;4.65;1.90;;;;;;;28.07;92.92;100594.78;4979701;28;20038;-75
2023/08/17 07:06:26;;;;;;;3.13;2.72;;;;;;;28.30;91.07;100657.94;4982087;28;20146;-76
2023/08/17 07:08:52;;;;;;;3.08;1.77;;;;;;;28.68;89.77;100644.47;4983694;28;20042;-75
2023/08/17 07:11:18;;;;;;;2.60;2.13;;;;;;;27.94;89.39;100568.69;4988510;28;20131;-74
2023/08/17 07:13:44;;;;;;;3.00;2.00;;;;;;;27.98;87.80;100559.41;4983616;28;20157;-77
2023/08/17 07:16:09;;;;;;;3.50;2.45;;;;;;;28.12;88.40;100576.44;4978093;28;20042;-76
2023/08/17 07:18:35;;;;;;;3.75;1.45;;;;;;;28.34;88.77;100629.78;4977590;28;20770;-76
2023/08/17 07:21:00;;;;;;;2.75;1.45;;;;;;;28.19;86.79;100565.13;4986566;28;20046;-75
2023/08/17 07:23:25;;;;;;;4.88;2.28;;;;;;;28.50;85.52;100614.25;4987256;28;20042;-75
2023/08/17 07:25:51;;;;;;;7.63;2.50;;;;;;;28.65;84.28;100660.00;4991747;28;20042;-77
2023/08/17 07:28:16;;;;;;;3.75;2.08;;;;;;;28.45;84.65;100664.09;4987519;28;20025;-76
2023/08/17 07:30:42;;;;;;;2.00;1.40;;;;;;;28.76;83.84;100649.31;4987657;28;20038;-76
2023/08/17 07:33:07;;;;;;;3.35;1.80;;;;;;;28.52;81.26;100608.75;4987209;28;20046;-76
2023/08/17 07:35:33;;;;;;;4.97;2.90;;;;;;;28.85;79.74;100635.13;4988312;28;20193;-75
2023/08/17 07:37:58;;;;;;;5.90;5.38;;;;;;;28.22;79.57;100564.03;4987112;28;20073;-76
2023/08/17 07:40:24;;;;;;;5.22;2.83;;;;;;;28.17;79.46;100563.50;4986428;28;20034;-77
2023/08/17 07:42:49;;;;;;;3.67;1.25;;;;;;;28.58;77.78;100584.84;4988851;28;20023;-76
2023/08/17 07:45:15;;;;;;;4.00;2.38;;;;;;;28.79;78.12;100657.16;4987268;28;20054;-75
2023/08/17 07:47:40;;;;;;;2.38;1.70;;;;;;;28.82;78.49;100646.13;4980910;28;20057;-76
2023/08/17 07:50:06;;;;;;;3.22;1.98;;;;;;;28.82;76.49;100625.41;4986820;28;20570;-77
2023/08/17 07:52:32;;;;;;;2.70;1.58;;;;;;;28.56;73.96;100596.72;4987688;28;20034;-76
2023/08/17 07:54:57;;;;;;;2.92;1.70;;;;;;;28.99;72.75;100656.59;4981393;28;20392;-76
2023/08/17 07:57:23;;;;;;;2.42;1.60;;;;;;;28.77;73.99;100638.38;4983615;28;20128;-76
2023/08/17 07:59:48;;;;;;;4.22;2.33;;;;;;;29.11;73.83;100659.41;4985938;28;20776;-77
2023/08/17 08:02:14;;;;;;;3.47;2.03;;;;;;;29.12;75.17;100653.00;4986848;28;20088;-77
2023/08/17 08:04:39;;;;;;;2.97;2.03;;;;;;;28.91;73.25;100606.78;4985728;28;20039;-76
2023/08/17 08:07:05;;;;;;;3.08;1.90;;;;;;;29.27;72.74;100635.66;4988533;28;20042;-76
2023/08/17 08:09:31;;;;;;;5.10;2.33;;;;;;;29.36;72.21;100631.38;4987336;28;20042;-76
2023/08/17 08:11:56;;;;;;;2.15;1.48;;;;;;;29.10;69.63;100580.16;4987103;28;20047;-76
2023/08/17 08:14:22;;;;;;;3.08;2.05;;;;;;;29.42;70.64;100649.84;4977999;28;20042;-76
2023/08/17 08:16:47;;;;;;;2.67;1.83;;;;;;;28.85;69.28;100566.75;4979230;28;20455;-75
2023/08/17 08:19:13;;;;;;;1.60;1.20;;;;;;;29.61;68.91;100666.41;4986638;28;20146;-76
2023/08/17 08:21:38;;;;;;;6.72;2.00;;;;;;;29.45;67.38;100650.50;4986669;28;20050;-76
2023/08/17 08:24:04;;;;;;;2.95;1.92;;;;;;;29.33;67.34;100640.59;4982993;28;20113;-77
2023/08/17 08:26:30;;;;;;;6.30;2.30;;;;;;;29.13;68.08;100584.47;4986345;28;20835;-77
2023/08/17 08:28:55;;;;;;;2.63;1.38;;;;;;;28.93;66.93;100577.81;4985310;28;20058;-76
2023/08/17 08:31:21;;;;;;;3.85;1.52;;;;;;;29.22;67.11;100630.59;4984085;28;20041;-75
2023/08/17 08:33:46;;;;;;;6.25;2.05;;;;;;;29.71;67.01;100663.03;4985464;28;20069;-76
2023/08/17 08:36:12;;;;;;;3.00;1.42;;;;;;;28.87;64.70;100565.66;4986485;28;20039;-76
2023/08/17 08:38:37;;;;;;;3.63;1.85;;;;;;;28.93;64.53;100564.31;4986296;28;20474;-75
2023/08/17 08:41:03;;;;;;;2.33;0.90;;;;;;;29.30;63.15;100648.09;4982121;28;20043;-77
2023/08/17 08:43:29;;;;;;;3.03;2.05;;;;;;;29.44;62.09;100629.84;4985143;28;20030;-76
2023/08/17 08:45:55;;;;;;;3.08;1.83;;;;;;;29.43;61.29;100647.06;4985268;28;20045;-77
2023/08/17 08:48:23;;;;;;;1.65;1.13;;;;;;;29.28;58.47;100604.06;4982471;28;20062;-76
2023/08/17 08:50:50;;;;;;;2.92;1.67;;;;;;;29.77;58.66;100638.22;4975789;28;20473;-75
2023/08/17 08:53:17;;;;;;;3.63;1.67;;;;;;;29.78;58.01;100648.06;4985310;28;20058;-74
2023/08/17 08:56:03;;;;;;;2.58;1.75;;;;;;;29.81;56.74;100642.44;4978433;28;20630;-76
2023/08/17 08:58:29;;;;;;;2.78;1.33;;;;;;;29.84;56.64;100628.66;4983103;28;20138;-75
2023/08/17 09:00:57;;;;;;;2.72;1.73;;;;;;;29.71;56.65;100544.88;4983595;28;20058;-77
2023/08/17 09:03:25;;;;;;;2.92;2.58;;;;;;;29.86;55.30;100538.25;4984832;28;20074;-77
2023/08/17 09:05:51;;;;;;;4.60;2.97;;;;;;;30.21;54.08;100556.25;4984471;28;20065;-77
2023/08/17 09:08:22;;;;;;;2.60;1.13;;;;;;;30.55;51.97;100605.00;4979427;28;20450;-75
2023/08/17 09:10:48;;;;;;;3.05;1.90;;;;;;;30.81;51.08;100624.56;4985875;28;20065;-77
2023/08/17 09:13:13;;;;;;;2.97;1.52;;;;;;;30.71;51.11;100632.56;4985572;28;20467;-76
2023/08/17 09:15:39;;;;;;;2.65;1.85;;;;;;;30.79;51.19;100631.97;4982185;28;20102;-75
2023/08/17 09:18:08;;;;;;;2.72;1.58;;;;;;;30.11;50.05;100527.31;4973178;28;20053;-76
2023/08/17 09:20:40;;;;;;;3.15;1.25;;;;;;;30.83;49.14;100628.00;4983064;28;20048;-76
2023/08/17 09:23:16;;;;;;;1.55;1.15;;;;;;;30.99;48.77;100550.88;4974832;28;20585;-76
2023/08/17 09:25:43;;;;;;;3.20;2.28;;;;;;;31.21;47.42;100549.91;4976587;28;20554;-80
2023/08/17 09:28:10;;;;;;;6.10;1.05;;;;;;;31.56;48.60;100584.91;4976044;28;20031;-77
2023/08/17 09:31:03;;;;;;;1.95;1.80;;;;;;;32.02;45.14;100613.56;4983040;28;20081;-77
2023/08/17 09:33:30;;;;;;;2.60;1.17;;;;;;;32.18;44.58;100592.19;4973095;28;20142;-78
2023/08/17 09:35:58;;;;;;;1.52;0.90;;;;;;;32.88;45.38;100594.19;4978144;28;20046;-75
2023/08/17 09:38:24;;;;;;;3.15;1.33;;;;;;;32.30;42.95;100538.66;4979494;28;20654;-75
2023/08/17 09:40:49;;;;;;;1.52;1.25;;;;;;;31.22;45.20;100540.81;4973999;28;20134;-76
2023/08/17 09:43:16;;;;;;;3.80;1.75;;;;;;;31.78;44.83;100591.25;4977301;28;20096;-75
2023/08/17 09:45:45;;;;;;;2.15;1.20;;;;;;;31.70;44.69;100591.88;4982236;28;20038;-76
2023/08/17 09:48:11;;;;;;;1.65;1.27;;;;;;;32.82;43.22;100573.00;4982582;28;20077;-77
2023/08/17 09:50:36;;;;;;;1.48;0.90;;;;;;;32.82;43.10;100527.66;4980059;28;20076;-78
2023/08/17 09:53:03;;;;;;;2.80;2.38;;;;;;;31.75;43.87;100608.66;4980401;28;20121;-75
2023/08/17 09:55:32;;;;;;;3.00;1.27;;;;;;;31.84;43.92;100599.69;4977424;28;20043;-77
2023/08/17 09:57:57;;;;;;;1.45;1.00;;;;;;;31.99;43.92;100512.53;4978432;28;20124;-77
2023/08/17 10:00:24;;;;;;;3.58;2.63;;;;;;;31.57;43.87;100602.94;4979231;28;20552;-77
2023/08/17 10:02:53;;;;;;;2.17;1.55;;;;;;;31.63;43.49;100601.53;4980501;28;20038;-78
2023/08/17 10:05:20;;;;;;;2.80;1.05;;;;;;;32.40;42.39;100601.16;4978461;28;20046;-78
2023/08/17 10:07:54;;;;;;;0.93;0.60;;;;;;;31.72;43.07;100512.06;4978910;28;20046;-77
2023/08/17 10:10:26;;;;;;;1.33;0.90;;;;;;;32.53;42.17;100598.25;4977279;28;20084;-78
2023/08/17 10:13:17;;;;;;;1.83;1.02;;;;;;;33.16;41.72;100598.84;4977430;28;20034;-75
2023/08/17 10:16:24;;;;;;;1.23;0.85;;;;;;;32.69;41.25;100590.44;4981155;28;20537;-77
2023/08/17 10:19:13;;;;;;;1.05;0.60;;;;;;;33.37;39.86;100499.91;4956586;28;20050;-75
2023/08/17 10:21:50;;;;;;;2.38;1.63;;;;;;;32.89;40.84;100590.47;4983099;28;20046;-77
2023/08/17 10:24:18;;;;;;;1.63;0.90;;;;;;;32.68;41.15;100522.63;4976878;28;20405;-75
2023/08/17 10:26:45;;;;;;;2.20;1.00;;;;;;;33.31;40.60;100517.66;4980073;28;20110;-76
2023/08/17 10:29:12;;;;;;;2.38;0.95;;;;;;;33.51;40.72;100543.00;4979727;28;20097;-74
2023/08/17 10:31:38;;;;;;;2.78;1.83;;;;;;;33.42;40.18;100497.63;4973708;28;23033;-75
2023/08/17 10:34:04;;;;;;;1.58;1.30;;;;;;;33.39;41.02;100584.97;4999636;28;20130;-75
2023/08/17 10:36:32;;;;;;;1.70;0.88;;;;;;;32.32;41.93;100569.25;4981867;28;20636;-75
2023/08/17 10:39:27;;;;;;;1.38;1.10;;;;;;;33.00;41.86;100580.31;5010114;28;20046;-75
2023/08/17 10:41:54;;;;;;;3.80;1.35;;;;;;;31.91;41.97;100494.16;4980902;28;20599;-75
2023/08/17 10:44:51;;;;;;;0.77;0.65;;;;;;;31.91;41.72;100560.19;4986601;28;20058;-76
2023/08/17 10:47:25;;;;;;;5.07;1.85;;;;;;;32.97;41.16;100504.50;4960919;28;20051;-74
2023/08/17 10:49:58;;;;;;;1.40;1.10;;;;;;;33.11;40.98;100573.94;4988023;28;20051;-75
2023/08/17 10:52:31;;;;;;;3.40;1.10;;;;;;;32.27;42.36;100555.22;4987794;28;20039;-76
2023/08/17 10:55:00;;;;;;;2.90;1.17;;;;;;;32.94;42.47;100571.88;4979403;28;20045;-76
2023/08/17 10:57:35;;;;;;;2.05;1.25;;;;;;;33.08;41.33;100570.63;4981486;28;20054;-75
2023/08/17 11:00:24;;;;;;;1.42;0.93;;;;;;;32.31;42.03;100567.53;4988889;28;20687;-74
2023/08/17 11:03:00;;;;;;;7.28;1.73;;;;;;;31.75;42.39;100483.81;4981384;28;20061;-76
2023/08/17 11:05:44;;;;;;;1.75;1.17;;;;;;;33.30;41.90;100493.34;4981901;28;20062;-75
2023/08/17 11:08:19;;;;;;;2.35;1.50;;;;;;;34.27;40.55;100547.56;4971899;28;20780;-77
2023/08/17 11:10:57;;;;;;;1.13;0.82;;;;;;;33.07;41.26;100533.56;4964667;28;20047;-76
2023/08/17 11:13:23;;;;;;;3.55;1.20;;;;;;;32.75;41.79;100540.09;4980761;28;20069;-78
2023/08/17 11:15:49;;;;;;;1.13;0.80;;;;;;;32.88;42.53;100477.31;4972812;28;20042;-78
2023/08/17 11:18:14;;;;;;;1.77;0.98;;;;;;;33.30;41.59;100505.06;4982757;28;20270;-76
2023/08/17 11:20:41;;;;;;;1.33;0.73;;;;;;;33.68;41.72;100506.03;4987252;28;20483;-83
2023/08/17 11:23:08;;;;;;;2.92;1.38;;;;;;;34.14;41.16;100544.31;4982277;28;20101;-78